Time;durP1;ratioP1;P1;durP2;ratioP2;P2;SDS_P1;SDS_P2;PMS_P1;PMS_P2;Temp;Humidity;BMP_temperature;BMP_pressure;BME280_temperature;BME280_humidity;BME280_pressure;Samples;Min_cycle;Max_cycle;Signal;HPM_P1;HPM_P2
2021/08/29 00:01:50;;;;;;;0.60;0.60;;;15.80;86.30;;;;;;5054105;28;20041;-74
2021/08/29 00:04:15;;;;;;;1.27;0.55;;;15.80;86.30;;;;;;5054236;28;20052;-73
2021/08/29 00:06:41;;;;;;;0.70;0.70;;;15.80;86.40;;;;;;5054172;28;20025;-74
2021/08/29 00:09:06;;;;;;;0.60;0.60;;;15.80;86.50;;;;;;5053962;28;20532;-74
2021/08/29 00:11:33;;;;;;;0.65;0.45;;;15.80;86.50;;;;;;5054063;28;20385;-74
2021/08/29 00:13:59;;;;;;;1.50;0.68;;;15.80;86.50;;;;;;5053525;28;20040;-74
2021/08/29 00:16:24;;;;;;;0.60;0.60;;;15.80;86.50;;;;;;5036185;28;20048;-75
2021/08/29 00:18:50;;;;;;;0.52;0.52;;;15.70;86.60;;;;;;5036021;28;20021;-75
2021/08/29 00:21:15;;;;;;;0.60;0.52;;;15.80;86.80;;;;;;5054055;28;20037;-73
2021/08/29 00:23:41;;;;;;;0.50;0.50;;;15.80;86.70;;;;;;5053870;28;20021;-74
2021/08/29 00:26:07;;;;;;;0.52;0.52;;;15.90;86.60;;;;;;5053886;28;20055;-75
2021/08/29 00:28:32;;;;;;;0.43;0.43;;;15.80;86.60;;;;;;5053411;28;20044;-74
2021/08/29 00:30:58;;;;;;;0.60;0.60;;;15.90;86.70;;;;;;5053593;28;20477;-72
2021/08/29 00:33:26;;;;;;;0.73;0.50;;;15.90;86.70;;;;;;5053538;28;20033;-73
2021/08/29 00:35:52;;;;;;;0.47;0.47;;;15.90;86.70;;;;;;5053643;28;20473;-74
2021/08/29 00:38:18;;;;;;;1.05;0.88;;;15.90;86.70;;;;;;5053655;28;20028;-73
2021/08/29 00:40:45;;;;;;;0.80;0.80;;;15.90;86.70;;;;;;5035773;28;20047;-74
2021/08/29 00:43:11;;;;;;;0.98;0.90;;;15.90;86.70;;;;;;5035170;28;20033;-73
2021/08/29 00:45:37;;;;;;;0.82;0.70;;;15.90;86.80;;;;;;5053423;28;20075;-74
2021/08/29 00:48:09;;;;;;;1.02;0.90;;;16.00;86.90;;;;;;5035478;28;20045;-73
2021/08/29 00:50:36;;;;;;;1.23;0.90;;;15.90;86.80;;;;;;5053387;28;20025;-72
2021/08/29 00:53:04;;;;;;;0.50;0.47;;;16.00;86.80;;;;;;5053382;28;20037;-74
2021/08/29 00:55:29;;;;;;;0.50;0.50;;;16.00;86.80;;;;;;5052933;28;20028;-74
2021/08/29 00:57:55;;;;;;;0.68;0.68;;;16.00;86.70;;;;;;5053345;28;20033;-74
2021/08/29 01:00:20;;;;;;;0.45;0.43;;;16.10;86.70;;;;;;5053172;28;20091;-73
2021/08/29 01:02:47;;;;;;;0.40;0.40;;;16.10;86.70;;;;;;5053299;28;20119;-74
2021/08/29 01:05:39;;;;;;;1.33;0.70;;;16.10;86.70;;;;;;5053223;28;20474;-74
2021/08/29 01:08:12;;;;;;;0.60;0.32;;;16.10;86.70;;;;;;5053147;28;20025;-72
2021/08/29 01:10:54;;;;;;;0.50;0.50;;;16.10;86.80;;;;;;5052536;28;20029;-73
2021/08/29 01:13:30;;;;;;;0.60;0.60;;;16.10;86.70;;;;;;5019177;28;20032;-73
2021/08/29 01:16:00;;;;;;;0.40;0.40;;;16.10;86.80;;;;;;5053235;28;20410;-73
2021/08/29 01:18:27;;;;;;;;;;;16.10;86.90;;;;;;5053426;28;20025;-73
2021/08/29 01:21:01;;;;;;;0.40;0.40;;;16.10;86.80;;;;;;5052895;28;19905;-73
2021/08/29 01:23:29;;;;;;;0.77;0.25;;;16.10;86.90;;;;;;5052999;28;20478;-74
2021/08/29 01:26:20;;;;;;;1.27;0.75;;;16.10;86.90;;;;;;5052570;28;20484;-73
2021/08/29 01:29:03;;;;;;;0.40;0.40;;;16.20;86.70;;;;;;5035191;28;20477;-73
2021/08/29 01:31:31;;;;;;;0.82;0.63;;;16.20;86.70;;;;;;5052964;28;20025;-73
2021/08/29 01:34:01;;;;;;;0.50;0.50;;;16.20;86.90;;;;;;5052704;28;20052;-73
2021/08/29 01:36:28;;;;;;;0.90;0.70;;;16.20;86.90;;;;;;5052899;28;20497;-74
2021/08/29 01:38:54;;;;;;;1.00;0.90;;;16.20;87.00;;;;;;5052454;28;20025;-75
2021/08/29 01:41:21;;;;;;;1.38;0.70;;;16.20;87.00;;;;;;5052865;28;20104;-73
2021/08/29 01:43:48;;;;;;;2.45;1.10;;;16.20;87.00;;;;;;5052871;28;20091;-74
2021/08/29 01:46:14;;;;;;;1.33;1.20;;;16.20;87.10;;;;;;5034951;28;20040;-74
2021/08/29 01:48:43;;;;;;;1.92;1.08;;;16.20;87.20;;;;;;5052574;28;20107;-74
2021/08/29 01:51:10;;;;;;;1.35;0.95;;;16.20;87.20;;;;;;5034950;28;20028;-75
2021/08/29 01:53:37;;;;;;;2.38;1.38;;;16.20;87.20;;;;;;5052035;28;20033;-73
2021/08/29 01:56:04;;;;;;;0.98;0.98;;;16.20;87.20;;;;;;5055655;28;20017;-74
2021/08/29 01:58:30;;;;;;;1.67;1.10;;;16.20;87.30;;;;;;5056593;28;20517;-74
2021/08/29 02:01:01;;;;;;;1.63;1.10;;;16.20;87.20;;;;;;5056550;28;20059;-73
2021/08/29 02:03:30;;;;;;;1.88;1.75;;;16.20;87.20;;;;;;5056472;28;20027;-74
2021/08/29 02:06:20;;;;;;;1.33;1.10;;;16.20;87.30;;;;;;5056413;28;20025;-74
2021/08/29 02:08:58;;;;;;;1.75;1.10;;;16.20;87.40;;;;;;5055982;28;20049;-73
2021/08/29 02:11:28;;;;;;;2.60;1.20;;;16.20;87.30;;;;;;5056433;28;20029;-73
2021/08/29 02:14:00;;;;;;;1.35;1.13;;;16.20;87.40;;;;;;5056333;28;20474;-74
2021/08/29 02:16:27;;;;;;;1.50;1.30;;;16.20;87.40;;;;;;5056324;28;20021;-73
2021/08/29 02:18:55;;;;;;;1.33;0.95;;;16.20;87.40;;;;;;5038229;28;20053;-74
2021/08/29 02:21:27;;;;;;;3.90;1.40;;;16.20;87.40;;;;;;5056199;28;20083;-73
2021/08/29 02:23:53;;;;;;;2.95;1.40;;;16.30;87.40;;;;;;5055758;28;20023;-73
2021/08/29 02:26:22;;;;;;;1.77;1.30;;;16.20;87.40;;;;;;5055913;28;20036;-74
2021/08/29 02:28:49;;;;;;;1.90;1.38;;;16.20;87.40;;;;;;5055985;28;20491;-75
2021/08/29 02:31:18;;;;;;;2.60;1.63;;;16.20;87.50;;;;;;5055909;28;20029;-73
2021/08/29 02:33:43;;;;;;;2.23;1.50;;;16.20;87.50;;;;;;5055822;28;20063;-74
2021/08/29 02:36:09;;;;;;;1.35;1.10;;;16.20;87.60;;;;;;5055893;28;20025;-74
2021/08/29 02:38:35;;;;;;;3.30;1.40;;;16.20;87.60;;;;;;5055270;28;20032;-74
2021/08/29 02:41:01;;;;;;;1.85;1.38;;;16.20;87.40;;;;;;5055759;28;20028;-73
2021/08/29 02:43:28;;;;;;;3.55;1.73;;;16.20;87.50;;;;;;5055683;28;20162;-73
2021/08/29 02:45:54;;;;;;;1.20;1.20;;;16.20;87.50;;;;;;5055768;28;20028;-74
2021/08/29 02:48:22;;;;;;;1.42;1.25;;;16.20;87.50;;;;;;5055413;28;20045;-73
2021/08/29 02:50:47;;;;;;;1.25;1.15;;;16.30;87.50;;;;;;5055927;28;20098;-73
2021/08/29 02:53:16;;;;;;;2.33;1.88;;;16.30;87.40;;;;;;5054995;28;20474;-73
2021/08/29 02:55:45;;;;;;;2.40;1.75;;;16.30;87.40;;;;;;5055535;28;20489;-73
2021/08/29 02:58:12;;;;;;;2.38;1.90;;;16.30;87.40;;;;;;5055455;28;20112;-74
2021/08/29 03:00:38;;;;;;;2.60;1.95;;;16.40;87.30;;;;;;5055322;28;20469;-73
2021/08/29 03:03:04;;;;;;;2.83;2.00;;;16.40;87.20;;;;;;5055269;28;20067;-74
2021/08/29 03:05:30;;;;;;;3.53;2.65;;;16.30;87.20;;;;;;5055360;28;20388;-73
2021/08/29 03:07:56;;;;;;;3.38;2.70;;;16.40;87.30;;;;;;5054675;28;20035;-74
2021/08/29 03:10:22;;;;;;;3.28;2.58;;;16.40;87.30;;;;;;5055280;28;20092;-74
2021/08/29 03:12:48;;;;;;;3.53;2.67;;;16.40;87.20;;;;;;5054897;28;20124;-75
2021/08/29 03:15:13;;;;;;;3.63;2.47;;;16.40;87.20;;;;;;5055747;28;20021;-74
2021/08/29 03:17:40;;;;;;;4.32;2.40;;;16.40;87.30;;;;;;5055063;28;20025;-73
2021/08/29 03:20:09;;;;;;;3.17;2.40;;;16.30;87.30;;;;;;5037037;28;20111;-74
2021/08/29 03:22:36;;;;;;;3.38;2.58;;;16.30;87.50;;;;;;5036653;28;20021;-73
2021/08/29 03:25:02;;;;;;;4.60;3.15;;;16.20;87.60;;;;;;5054873;28;20124;-74
2021/08/29 03:27:28;;;;;;;4.35;3.33;;;16.10;88.10;;;;;;5054756;28;20029;-75
2021/08/29 03:29:54;;;;;;;2.78;2.00;;;16.00;88.30;;;;;;5055018;28;20066;-75
2021/08/29 03:32:20;;;;;;;3.92;2.40;;;16.00;88.50;;;;;;5054691;28;20036;-73
2021/08/29 03:34:51;;;;;;;1.90;1.70;;;15.90;88.50;;;;;;5054823;28;20078;-74
2021/08/29 03:37:18;;;;;;;2.72;1.83;;;15.90;88.50;;;;;;5054742;28;20458;-74
2021/08/29 03:39:44;;;;;;;2.22;1.65;;;15.90;88.60;;;;;;5054658;28;20075;-74
2021/08/29 03:42:10;;;;;;;3.33;1.80;;;15.80;88.60;;;;;;5054568;28;20024;-76
2021/08/29 03:44:36;;;;;;;2.72;1.75;;;15.80;88.60;;;;;;5054503;28;20025;-75
2021/08/29 03:47:01;;;;;;;2.38;1.80;;;15.80;88.70;;;;;;5054499;28;20040;-73
2021/08/29 03:49:27;;;;;;;2.67;1.45;;;15.80;88.70;;;;;;5053887;28;20048;-74
2021/08/29 03:51:55;;;;;;;1.40;1.23;;;15.80;88.60;;;;;;5054161;28;20032;-73
2021/08/29 03:54:21;;;;;;;1.95;1.65;;;15.80;88.40;;;;;;5054551;28;20430;-74
2021/08/29 03:56:47;;;;;;;1.60;1.23;;;15.90;88.30;;;;;;5054436;28;20021;-74
2021/08/29 03:59:12;;;;;;;2.08;1.42;;;15.90;88.20;;;;;;5054164;28;20025;-74
2021/08/29 04:01:38;;;;;;;1.40;1.05;;;16.00;88.10;;;;;;5054229;28;20100;-75
2021/08/29 04:04:04;;;;;;;1.80;1.23;;;16.00;88.00;;;;;;5053705;28;20031;-74
2021/08/29 04:06:33;;;;;;;1.05;0.90;;;16.00;87.90;;;;;;5054081;28;20059;-74
2021/08/29 04:09:04;;;;;;;2.00;1.17;;;16.00;87.90;;;;;;5036075;28;20465;-74
2021/08/29 04:11:32;;;;;;;1.55;1.10;;;16.10;87.80;;;;;;5054050;28;20029;-74
2021/08/29 04:13:59;;;;;;;1.55;1.00;;;16.10;87.80;;;;;;5054001;28;20448;-74
2021/08/29 04:16:25;;;;;;;2.30;1.05;;;16.10;87.70;;;;;;5053785;28;20163;-75
2021/08/29 04:18:51;;;;;;;1.08;0.80;;;16.20;87.70;;;;;;5052924;28;20394;-74
2021/08/29 04:21:20;;;;;;;2.53;1.40;;;16.20;87.60;;;;;;5053872;28;20024;-73
2021/08/29 04:23:45;;;;;;;1.98;1.20;;;16.20;87.60;;;;;;5035895;28;20193;-74
2021/08/29 04:26:11;;;;;;;1.42;1.00;;;16.20;87.70;;;;;;5035916;28;20021;-74
2021/08/29 04:28:37;;;;;;;1.35;0.85;;;16.20;87.70;;;;;;5053791;28;20147;-75
2021/08/29 04:31:12;;;;;;;4.63;1.92;;;16.20;87.80;;;;;;5053581;28;20083;-74
2021/08/29 04:33:38;;;;;;;1.63;1.20;;;16.20;87.80;;;;;;5053277;28;20037;-74
2021/08/29 04:36:08;;;;;;;1.08;0.90;;;16.20;88.10;;;;;;5053582;28;20032;-74
2021/08/29 04:38:34;;;;;;;2.13;1.05;;;16.20;88.00;;;;;;5053676;28;20035;-74
2021/08/29 04:41:00;;;;;;;1.45;0.90;;;16.20;88.00;;;;;;5053238;28;20378;-74
2021/08/29 04:43:25;;;;;;;0.75;0.75;;;16.30;88.00;;;;;;5053645;28;20033;-75
2021/08/29 04:45:51;;;;;;;1.48;1.10;;;16.30;88.00;;;;;;5053489;28;20025;-73
2021/08/29 04:48:16;;;;;;;2.53;1.30;;;16.30;88.00;;;;;;5052401;28;20056;-75
2021/08/29 04:50:42;;;;;;;1.13;1.02;;;16.30;88.00;;;;;;5052691;28;20090;-75
2021/08/29 04:53:08;;;;;;;1.40;1.30;;;16.30;88.00;;;;;;5034772;28;20410;-74
2021/08/29 04:55:33;;;;;;;2.03;1.45;;;16.30;88.00;;;;;;5052432;28;20025;-75
2021/08/29 04:57:59;;;;;;;1.20;1.00;;;16.30;88.10;;;;;;5052635;28;20021;-74
2021/08/29 05:00:24;;;;;;;2.03;1.50;;;16.30;88.20;;;;;;5052422;28;20466;-74
2021/08/29 05:02:50;;;;;;;3.88;1.48;;;16.30;88.20;;;;;;5051821;28;20029;-75
2021/08/29 05:05:15;;;;;;;3.22;1.75;;;16.40;88.20;;;;;;5052510;28;20035;-75
2021/08/29 05:07:41;;;;;;;2.75;1.23;;;16.40;88.20;;;;;;5052453;28;20028;-75
2021/08/29 05:10:07;;;;;;;1.65;1.05;;;16.40;88.20;;;;;;5052429;28;20045;-75
2021/08/29 05:12:32;;;;;;;4.30;1.67;;;16.50;88.10;;;;;;5052046;28;20075;-73
2021/08/29 05:14:57;;;;;;;2.70;1.55;;;16.50;88.10;;;;;;5052364;28;20048;-73
2021/08/29 05:17:23;;;;;;;1.80;1.15;;;16.50;88.10;;;;;;5051651;28;20025;-73
2021/08/29 05:19:49;;;;;;;2.58;1.15;;;16.50;88.10;;;;;;5052287;28;20035;-74
2021/08/29 05:22:14;;;;;;;2.17;1.20;;;16.50;88.10;;;;;;5052134;28;20025;-75
2021/08/29 05:24:40;;;;;;;2.13;1.02;;;16.50;88.20;;;;;;5052118;28;20032;-74
2021/08/29 05:27:05;;;;;;;2.42;1.77;;;16.50;88.20;;;;;;5052056;28;20049;-74
2021/08/29 05:29:31;;;;;;;1.27;1.13;;;16.60;88.10;;;;;;5034551;28;20017;-75
2021/08/29 05:31:56;;;;;;;1.02;0.90;;;16.60;88.10;;;;;;5055153;28;20044;-75
2021/08/29 05:34:22;;;;;;;3.40;1.50;;;16.60;88.30;;;;;;5037678;28;20032;-74
2021/08/29 05:36:47;;;;;;;2.72;1.58;;;16.60;88.80;;;;;;5055645;28;20017;-75
2021/08/29 05:39:13;;;;;;;1.45;1.23;;;16.60;88.20;;;;;;5055514;28;20029;-75
2021/08/29 05:41:39;;;;;;;2.22;1.15;;;16.60;88.30;;;;;;5055422;28;20025;-75
2021/08/29 05:44:04;;;;;;;2.65;1.42;;;16.60;88.20;;;;;;5055698;28;20032;-74
2021/08/29 05:46:30;;;;;;;2.55;1.60;;;16.60;88.20;;;;;;5055143;28;20485;-74
2021/08/29 05:48:55;;;;;;;3.97;1.90;;;16.70;88.30;;;;;;5020775;28;1018148;-73
2021/08/29 05:51:21;;;;;;;3.92;1.95;;;16.60;88.30;;;;;;5056607;28;20116;-73
2021/08/29 05:53:47;;;;;;;2.70;1.20;;;16.60;88.30;;;;;;5056369;28;20162;-74
2021/08/29 05:56:12;;;;;;;1.90;1.08;;;16.70;88.50;;;;;;5056739;28;20035;-75
2021/08/29 05:58:38;;;;;;;2.33;1.27;;;16.70;88.30;;;;;;5056517;28;20029;-76
2021/08/29 06:01:04;;;;;;;1.63;1.42;;;16.70;88.20;;;;;;5056235;28;20070;-76
2021/08/29 06:03:31;;;;;;;1.10;0.85;;;16.70;88.20;;;;;;5038510;28;20025;-76
2021/08/29 06:05:57;;;;;;;1.45;1.02;;;16.80;88.20;;;;;;5038531;28;20032;-74
2021/08/29 06:08:23;;;;;;;1.60;1.10;;;16.80;88.20;;;;;;5056263;28;20024;-73
2021/08/29 06:10:49;;;;;;;2.97;1.80;;;16.80;88.20;;;;;;5056361;28;20389;-76
2021/08/29 06:13:14;;;;;;;0.75;0.75;;;16.80;88.20;;;;;;5056326;28;20041;-76
2021/08/29 06:15:40;;;;;;;1.42;1.00;;;16.80;88.30;;;;;;5055722;28;20083;-75
2021/08/29 06:18:05;;;;;;;2.92;1.67;;;16.80;88.10;;;;;;5056168;28;20025;-76
2021/08/29 06:20:31;;;;;;;1.83;1.00;;;16.80;88.10;;;;;;5056250;28;20466;-76
2021/08/29 06:22:56;;;;;;;1.38;0.93;;;16.80;88.10;;;;;;5056033;28;20029;-75
2021/08/29 06:25:22;;;;;;;1.27;0.98;;;16.80;88.10;;;;;;5038198;28;20036;-79
2021/08/29 06:27:47;;;;;;;1.67;0.88;;;16.80;88.10;;;;;;5055925;28;20021;-75
2021/08/29 06:30:13;;;;;;;1.55;1.02;;;16.90;88.20;;;;;;5037759;28;20025;-75
2021/08/29 06:32:38;;;;;;;1.73;1.45;;;16.90;88.10;;;;;;5055918;28;20110;-74
2021/08/29 06:35:04;;;;;;;0.60;0.60;;;17.00;88.00;;;;;;5056091;28;20435;-75
2021/08/29 06:37:30;;;;;;;0.70;0.70;;;17.00;87.80;;;;;;5055848;28;20029;-75
2021/08/29 06:39:55;;;;;;;0.90;0.70;;;17.10;87.80;;;;;;5055772;28;20032;-76
2021/08/29 06:42:21;;;;;;;1.17;0.90;;;17.10;87.90;;;;;;5055364;28;20044;-77
2021/08/29 06:44:46;;;;;;;1.15;0.63;;;17.10;87.80;;;;;;5055334;28;20040;-77
2021/08/29 06:47:12;;;;;;;1.83;1.17;;;17.10;87.70;;;;;;5047832;28;20474;-76
2021/08/29 06:49:37;;;;;;;0.80;0.80;;;17.10;87.80;;;;;;5043449;28;20048;-75
2021/08/29 06:52:03;;;;;;;1.52;1.20;;;17.10;87.90;;;;;;5054194;28;20419;-74
2021/08/29 06:54:29;;;;;;;1.48;0.85;;;17.10;87.90;;;;;;5054965;28;20021;-78
2021/08/29 06:56:54;;;;;;;1.52;1.08;;;17.10;87.90;;;;;;5036786;28;20532;-76
2021/08/29 06:59:20;;;;;;;1.55;1.10;;;17.20;87.90;;;;;;5054878;28;20025;-77
2021/08/29 07:01:45;;;;;;;1.77;1.23;;;17.20;87.80;;;;;;5055447;28;20025;-78
2021/08/29 07:04:11;;;;;;;1.27;1.15;;;17.20;87.90;;;;;;5055404;28;20027;-78
2021/08/29 07:06:37;;;;;;;1.25;0.88;;;17.20;87.70;;;;;;5055563;28;20025;-77
2021/08/29 07:09:03;;;;;;;0.55;0.55;;;17.20;87.70;;;;;;5055378;28;20071;-77
2021/08/29 07:11:28;;;;;;;0.95;0.95;;;17.30;87.70;;;;;;5055197;28;20023;-75
2021/08/29 07:13:54;;;;;;;2.08;1.17;;;17.30;87.60;;;;;;5054681;28;20100;-76
2021/08/29 07:16:20;;;;;;;1.88;1.10;;;17.30;87.60;;;;;;5055278;28;20021;-76
2021/08/29 07:18:45;;;;;;;0.95;0.80;;;17.30;87.70;;;;;;5037363;28;20036;-76
2021/08/29 07:21:11;;;;;;;3.22;1.20;;;17.30;87.80;;;;;;5055110;28;20021;-76
2021/08/29 07:23:36;;;;;;;0.75;0.70;;;17.30;87.70;;;;;;5054929;28;20025;-78
2021/08/29 07:26:02;;;;;;;2.03;0.93;;;17.30;87.80;;;;;;5054940;28;20021;-76
2021/08/29 07:28:27;;;;;;;1.15;0.80;;;17.30;87.80;;;;;;5036582;28;20495;-76
2021/08/29 07:30:53;;;;;;;3.95;1.92;;;17.20;87.80;;;;;;5036963;28;20384;-77
2021/08/29 07:33:19;;;;;;;1.30;1.00;;;17.10;88.00;;;;;;5054761;28;20040;-77
2021/08/29 07:35:44;;;;;;;1.60;0.82;;;17.10;88.20;;;;;;5054590;28;20028;-78
2021/08/29 07:38:10;;;;;;;1.70;1.00;;;17.10;88.30;;;;;;5054805;28;20021;-78
2021/08/29 07:40:36;;;;;;;0.65;0.60;;;17.20;88.20;;;;;;5054889;28;20417;-77
2021/08/29 07:43:02;;;;;;;2.00;1.25;;;17.20;88.00;;;;;;5054107;28;20032;-79
2021/08/29 07:45:28;;;;;;;2.53;1.48;;;17.20;87.90;;;;;;5054502;28;20138;-78
2021/08/29 07:47:54;;;;;;;2.42;1.10;;;17.20;88.00;;;;;;5036496;28;20048;-76
2021/08/29 07:50:21;;;;;;;1.77;1.27;;;17.10;88.10;;;;;;5034029;28;20025;-74
2021/08/29 07:52:47;;;;;;;1.45;1.20;;;17.10;88.40;;;;;;5050654;28;20029;-74
2021/08/29 07:55:13;;;;;;;1.35;0.95;;;17.00;88.80;;;;;;5051587;28;20079;-76
2021/08/29 07:57:38;;;;;;;2.58;1.52;;;16.90;88.90;;;;;;5051127;28;20029;-75
2021/08/29 08:00:04;;;;;;;1.52;1.20;;;16.90;89.10;;;;;;5051518;28;20029;-76
2021/08/29 08:02:30;;;;;;;1.88;1.33;;;16.80;89.30;;;;;;5033514;28;20428;-76
2021/08/29 08:04:56;;;;;;;1.20;0.75;;;16.70;89.60;;;;;;5051356;28;20025;-77
2021/08/29 08:07:21;;;;;;;1.65;1.23;;;16.60;89.90;;;;;;5051460;28;20046;-76
2021/08/29 08:09:47;;;;;;;1.50;1.40;;;16.50;90.00;;;;;;5051550;28;20497;-77
2021/08/29 08:12:12;;;;;;;0.95;0.70;;;16.50;90.00;;;;;;5050738;28;20044;-76
2021/08/29 08:14:38;;;;;;;0.93;0.80;;;16.50;90.10;;;;;;5047231;28;20104;-76
2021/08/29 08:17:03;;;;;;;4.97;1.77;;;16.50;90.00;;;;;;5031663;28;20033;-75
2021/08/29 08:19:29;;;;;;;2.50;1.20;;;16.40;90.00;;;;;;5052337;28;20021;-77
2021/08/29 08:21:55;;;;;;;1.20;0.85;;;16.40;90.20;;;;;;5035929;28;20075;-77
2021/08/29 08:24:21;;;;;;;2.13;1.00;;;16.30;90.20;;;;;;5053591;28;20017;-77
2021/08/29 08:26:46;;;;;;;1.52;0.98;;;16.30;90.20;;;;;;5053389;28;20029;-76
2021/08/29 08:29:12;;;;;;;1.02;0.90;;;16.20;90.30;;;;;;5053768;28;20053;-76
2021/08/29 08:31:37;;;;;;;2.15;1.08;;;16.20;90.30;;;;;;5053671;28;20099;-76
2021/08/29 08:34:03;;;;;;;1.55;0.90;;;16.20;90.30;;;;;;5053434;28;20043;-75
2021/08/29 08:36:28;;;;;;;1.05;0.70;;;16.10;90.30;;;;;;5053560;28;20088;-74
2021/08/29 08:38:54;;;;;;;1.45;1.10;;;16.10;90.30;;;;;;5053622;28;20469;-77
2021/08/29 08:41:19;;;;;;;2.17;1.58;;;16.00;90.40;;;;;;5053033;28;20032;-74
2021/08/29 08:43:46;;;;;;;4.00;1.50;;;15.90;90.60;;;;;;5053526;28;20032;-76
2021/08/29 08:46:11;;;;;;;4.63;1.65;;;15.80;90.70;;;;;;5053421;28;20025;-76
2021/08/29 08:48:39;;;;;;;2.15;1.38;;;15.80;90.70;;;;;;5053270;28;20401;-76
2021/08/29 08:51:11;;;;;;;2.78;1.27;;;15.80;90.70;;;;;;5053385;28;20032;-78
2021/08/29 08:53:39;;;;;;;2.65;1.67;;;15.70;90.70;;;;;;5053345;28;20033;-77
2021/08/29 08:56:05;;;;;;;1.35;0.93;;;15.90;90.70;;;;;;5052828;28;20017;-78
2021/08/29 08:58:39;;;;;;;2.05;1.20;;;15.90;90.60;;;;;;5053221;28;20112;-78
2021/08/29 09:01:05;;;;;;;1.88;0.98;;;15.90;90.60;;;;;;5053543;28;20396;-78
2021/08/29 09:03:31;;;;;;;2.47;1.15;;;15.90;90.60;;;;;;5035251;28;20025;-78
2021/08/29 09:05:57;;;;;;;2.28;1.30;;;16.00;90.60;;;;;;5035410;28;20367;-78
2021/08/29 09:08:22;;;;;;;2.25;1.33;;;15.90;90.70;;;;;;5052639;28;20032;-79
2021/08/29 09:10:48;;;;;;;1.30;1.00;;;15.90;90.80;;;;;;5053291;28;20025;-76
2021/08/29 09:13:14;;;;;;;0.85;0.80;;;15.90;90.70;;;;;;5053044;28;20037;-77
2021/08/29 09:15:39;;;;;;;1.20;0.88;;;15.90;90.70;;;;;;5053068;28;20100;-79
2021/08/29 09:18:09;;;;;;;1.48;0.70;;;16.10;90.60;;;;;;5053014;28;20056;-79
2021/08/29 09:20:36;;;;;;;0.80;0.80;;;16.00;90.50;;;;;;5053361;28;20060;-79
2021/08/29 09:23:13;;;;;;;1.80;0.98;;;16.00;90.50;;;;;;5034758;28;20472;-78
2021/08/29 09:25:41;;;;;;;1.08;0.55;;;16.00;90.60;;;;;;5053049;28;20028;-76
2021/08/29 09:28:15;;;;;;;0.73;0.55;;;16.00;90.90;;;;;;5052910;28;20039;-78
2021/08/29 09:30:43;;;;;;;0.75;0.73;;;16.00;90.60;;;;;;5052950;28;20413;-78
2021/08/29 09:33:09;;;;;;;0.45;0.45;;;16.10;90.70;;;;;;5053146;28;20444;-78
2021/08/29 09:35:36;;;;;;;1.10;0.73;;;16.00;90.60;;;;;;5035136;28;20021;-80
2021/08/29 09:38:04;;;;;;;0.68;0.50;;;16.10;90.60;;;;;;5034885;28;20040;-78
2021/08/29 09:40:33;;;;;;;0.98;0.70;;;16.10;90.60;;;;;;5052701;28;20025;-79
2021/08/29 09:43:00;;;;;;;1.00;0.90;;;16.10;90.60;;;;;;5052958;28;20140;-76
2021/08/29 09:45:45;;;;;;;0.75;0.60;;;16.10;90.60;;;;;;5052722;28;20371;-75
2021/08/29 09:48:14;;;;;;;1.65;0.77;;;16.10;90.60;;;;;;5052300;28;20470;-76
2021/08/29 09:50:42;;;;;;;1.15;0.70;;;16.20;90.60;;;;;;5052904;28;20018;-78
2021/08/29 09:53:10;;;;;;;0.55;0.55;;;16.20;90.70;;;;;;5052328;28;20033;-78
2021/08/29 09:55:44;;;;;;;1.77;0.60;;;16.10;90.70;;;;;;5052693;28;20070;-79
2021/08/29 09:58:32;;;;;;;0.55;0.55;;;16.20;90.70;;;;;;5052696;28;20496;-76
2021/08/29 10:01:12;;;;;;;0.70;0.70;;;16.20;90.60;;;;;;5052701;28;20053;-75
2021/08/29 10:03:49;;;;;;;1.77;0.80;;;16.20;90.70;;;;;;5052510;28;20021;-77
2021/08/29 10:06:22;;;;;;;1.02;0.60;;;16.10;90.80;;;;;;5052728;28;20025;-75
2021/08/29 10:08:55;;;;;;;0.98;0.70;;;16.10;90.90;;;;;;5052664;28;20052;-77
2021/08/29 10:11:22;;;;;;;0.68;0.47;;;16.00;91.00;;;;;;5052605;28;20017;-76
2021/08/29 10:13:48;;;;;;;0.50;0.47;;;16.10;91.00;;;;;;5052494;28;20029;-76
2021/08/29 10:16:15;;;;;;;0.60;0.52;;;16.20;90.90;;;;;;5054162;28;20099;-76
2021/08/29 10:18:47;;;;;;;0.68;0.52;;;16.20;90.90;;;;;;5056216;28;20033;-76
2021/08/29 10:21:18;;;;;;;0.90;0.63;;;16.20;90.90;;;;;;5055758;28;20017;-79
2021/08/29 10:23:47;;;;;;;2.45;0.80;;;16.20;90.90;;;;;;5038274;28;20500;-79
2021/08/29 10:26:14;;;;;;;1.40;0.73;;;16.20;91.00;;;;;;5056230;28;20478;-78
2021/08/29 10:28:47;;;;;;;0.95;0.60;;;16.20;91.00;;;;;;5055879;28;20048;-77
2021/08/29 10:31:17;;;;;;;0.90;0.57;;;16.20;91.00;;;;;;5056166;28;20017;-79
2021/08/29 10:33:47;;;;;;;0.70;0.70;;;16.30;91.00;;;;;;5055911;28;20029;-79
2021/08/29 10:36:20;;;;;;;0.32;0.30;;;16.40;91.00;;;;;;5055519;28;20017;-80
2021/08/29 10:38:47;;;;;;;0.40;0.40;;;16.40;90.90;;;;;;5038367;28;20048;-79
2021/08/29 10:41:16;;;;;;;0.88;0.50;;;16.40;91.00;;;;;;5055907;28;20017;-79
2021/08/29 10:43:46;;;;;;;0.50;0.50;;;16.40;91.00;;;;;;5056108;28;20025;-81
2021/08/29 10:46:14;;;;;;;1.05;0.80;;;16.40;91.00;;;;;;5055843;28;20492;-81
2021/08/29 10:48:42;;;;;;;1.33;0.70;;;16.40;91.10;;;;;;5055587;28;20128;-79
2021/08/29 10:51:13;;;;;;;2.05;0.57;;;16.40;91.10;;;;;;5055169;28;20109;-78
2021/08/29 10:53:49;;;;;;;0.30;0.30;;;16.40;91.00;;;;;;5055512;28;20120;-80
2021/08/29 10:56:14;;;;;;;0.57;0.45;;;16.40;91.00;;;;;;5055590;28;20024;-79
2021/08/29 10:58:41;;;;;;;0.32;0.32;;;16.40;91.10;;;;;;5055554;28;20021;-78
2021/08/29 11:01:39;;;;;;;0.70;0.70;;;16.40;91.10;;;;;;5055642;28;20031;-80
2021/08/29 11:04:17;;;;;;;0.50;0.38;;;16.50;91.00;;;;;;5037482;28;20394;-78
2021/08/29 11:06:47;;;;;;;0.85;0.70;;;16.50;91.10;;;;;;5054781;28;20013;-78
2021/08/29 11:09:31;;;;;;;0.88;0.70;;;16.50;91.10;;;;;;5055478;28;20470;-78
2021/08/29 11:12:01;;;;;;;0.52;0.40;;;16.50;91.10;;;;;;5055403;28;20037;-77
2021/08/29 11:14:44;;;;;;;1.15;0.50;;;16.50;91.20;;;;;;5055433;28;20158;-76
2021/08/29 11:17:15;;;;;;;0.60;0.60;;;16.50;91.20;;;;;;5055707;28;20106;-77
2021/08/29 11:19:43;;;;;;;0.80;0.80;;;16.50;91.30;;;;;;5054858;28;20040;-77
2021/08/29 11:22:08;;;;;;;0.45;0.45;;;16.50;91.30;;;;;;5055219;28;20045;-77
2021/08/29 11:24:59;;;;;;;0.63;0.63;;;16.60;91.20;;;;;;5055159;28;20096;-77
2021/08/29 11:27:38;;;;;;;0.55;0.55;;;16.60;91.10;;;;;;5054085;28;20025;-77
2021/08/29 11:30:15;;;;;;;2.15;1.27;;;16.60;91.10;;;;;;5055252;28;20055;-77
2021/08/29 11:32:56;;;;;;;1.30;1.20;;;16.60;91.30;;;;;;5055467;28;20064;-76
2021/08/29 11:35:32;;;;;;;1.40;0.95;;;16.60;91.30;;;;;;5037588;28;20024;-77
2021/08/29 11:38:03;;;;;;;1.13;1.00;;;16.60;91.40;;;;;;5055104;28;20032;-77
2021/08/29 11:40:59;;;;;;;1.13;1.00;;;16.60;91.40;;;;;;5036966;28;20060;-78
2021/08/29 11:43:28;;;;;;;1.08;0.98;;;16.60;91.30;;;;;;5054767;28;20412;-78
2021/08/29 11:46:03;;;;;;;0.80;0.80;;;16.50;91.40;;;;;;5036696;28;20112;-78
2021/08/29 11:48:31;;;;;;;0.38;0.30;;;16.50;91.40;;;;;;5053861;28;20498;-79
2021/08/29 11:50:59;;;;;;;0.73;0.70;;;16.60;91.40;;;;;;5054429;28;20083;-80
2021/08/29 11:53:26;;;;;;;0.55;0.55;;;16.60;91.40;;;;;;5054366;28;20415;-80
2021/08/29 11:55:56;;;;;;;1.50;0.63;;;16.60;91.30;;;;;;5054460;28;20028;-78
2021/08/29 11:58:23;;;;;;;0.63;0.50;;;16.60;91.40;;;;;;5054355;28;20527;-78
2021/08/29 12:00:50;;;;;;;0.65;0.40;;;16.60;91.40;;;;;;5054264;28;20100;-80
2021/08/29 12:03:16;;;;;;;0.63;0.55;;;16.70;91.60;;;;;;5053938;28;20024;-82
2021/08/29 12:06:18;;;;;;;0.73;0.50;;;16.70;91.80;;;;;;5054158;28;20035;-80
2021/08/29 12:08:51;;;;;;;1.20;1.13;;;16.70;92.00;;;;;;5054265;28;20029;-79
2021/08/29 12:11:18;;;;;;;0.70;0.70;;;16.70;92.60;;;;;;5036244;28;20057;-79
2021/08/29 12:13:44;;;;;;;0.95;0.77;;;16.80;92.60;;;;;;5054206;28;20478;-80
2021/08/29 12:16:11;;;;;;;0.75;0.75;;;16.80;92.70;;;;;;5054077;28;20024;-79
2021/08/29 12:18:39;;;;;;;0.98;0.75;;;16.80;93.00;;;;;;5035688;28;20021;-81
2021/08/29 12:21:09;;;;;;;1.08;0.73;;;16.80;93.10;;;;;;5054051;28;20108;-79
2021/08/29 12:23:37;;;;;;;0.88;0.70;;;16.90;93.20;;;;;;5053789;28;20489;-79
2021/08/29 12:26:06;;;;;;;0.80;0.80;;;16.90;93.40;;;;;;5053980;28;20025;-80
2021/08/29 12:28:33;;;;;;;1.52;1.10;;;17.00;93.40;;;;;;5035857;28;20493;-81
2021/08/29 12:31:00;;;;;;;1.00;0.90;;;17.00;93.40;;;;;;5053725;28;20025;-82
2021/08/29 12:33:27;;;;;;;0.68;0.63;;;17.20;93.50;;;;;;5053064;28;20036;-81
2021/08/29 12:35:53;;;;;;;0.93;0.90;;;17.20;93.50;;;;;;5035706;28;20020;-78
2021/08/29 12:38:23;;;;;;;2.10;1.30;;;17.30;93.50;;;;;;5035736;28;20029;-78
2021/08/29 12:40:50;;;;;;;1.73;1.20;;;17.30;93.50;;;;;;5053504;28;20017;-79
2021/08/29 12:43:16;;;;;;;1.80;1.17;;;17.20;93.70;;;;;;5053605;28;20100;-79
2021/08/29 12:45:42;;;;;;;1.33;1.08;;;17.20;93.80;;;;;;5053598;28;20072;-80
2021/08/29 12:48:08;;;;;;;1.10;0.95;;;17.30;93.80;;;;;;5034729;28;20401;-77
2021/08/29 12:50:53;;;;;;;1.27;0.98;;;17.30;93.80;;;;;;5053461;28;20025;-79
2021/08/29 12:53:23;;;;;;;1.10;1.00;;;17.30;93.70;;;;;;5053430;28;20078;-79